sensor_id;sensor_type;location;lat;lon;timestamp;pressure;altitude;pressure_sealevel;temperature;humidity
46534;BME280;32260;52.008;4.752;2023-02-03T00:01:37;102581.78;;;11.16;66.72
46534;BME280;32260;52.008;4.752;2023-02-03T00:04:03;102580.06;;;11.23;67.18
46534;BME280;32260;52.008;4.752;2023-02-03T00:06:31;102586.13;;;11.05;67.54
46534;BME280;32260;52.008;4.752;2023-02-03T00:08:57;102606.44;;;11.03;66.83
46534;BME280;32260;52.008;4.752;2023-02-03T00:11:26;102607.38;;;11.09;67.06
46534;BME280;32260;52.008;4.752;2023-02-03T00:13:54;102586.19;;;11.17;67.50
46534;BME280;32260;52.008;4.752;2023-02-03T00:16:20;102593.28;;;11.16;66.95
46534;BME280;32260;52.008;4.752;2023-02-03T00:18:46;102595.91;;;11.12;67.45
46534;BME280;32260;52.008;4.752;2023-02-03T00:21:12;102588.81;;;11.11;67.37
46534;BME280;32260;52.008;4.752;2023-02-03T00:23:40;102599.41;;;11.08;67.49
46534;BME280;32260;52.008;4.752;2023-02-03T00:26:11;102602.09;;;11.14;67.01
46534;BME280;32260;52.008;4.752;2023-02-03T00:28:39;102587.94;;;11.10;66.95
46534;BME280;32260;52.008;4.752;2023-02-03T00:31:17;102594.91;;;10.99;67.49
46534;BME280;32260;52.008;4.752;2023-02-03T00:33:44;102609.97;;;10.98;67.59
46534;BME280;32260;52.008;4.752;2023-02-03T00:36:10;102609.91;;;10.92;67.65
46534;BME280;32260;52.008;4.752;2023-02-03T00:38:40;102617.09;;;11.06;67.22
46534;BME280;32260;52.008;4.752;2023-02-03T00:41:06;102612.63;;;10.98;67.63
46534;BME280;32260;52.008;4.752;2023-02-03T00:43:32;102610.00;;;11.02;67.53
46534;BME280;32260;52.008;4.752;2023-02-03T00:45:59;102604.66;;;10.98;67.36
46534;BME280;32260;52.008;4.752;2023-02-03T00:48:25;102613.44;;;10.91;67.55
46534;BME280;32260;52.008;4.752;2023-02-03T00:50:54;102615.31;;;11.02;67.66
46534;BME280;32260;52.008;4.752;2023-02-03T00:53:20;102621.47;;;11.00;67.38
46534;BME280;32260;52.008;4.752;2023-02-03T00:55:46;102619.66;;;10.96;67.52
46534;BME280;32260;52.008;4.752;2023-02-03T00:58:12;102606.44;;;10.99;67.54
46534;BME280;32260;52.008;4.752;2023-02-03T01:00:38;102614.41;;;10.98;67.85
46534;BME280;32260;52.008;4.752;2023-02-03T01:03:07;102610.00;;;11.02;67.36
46534;BME280;32260;52.008;4.752;2023-02-03T01:31:30;102587.94;;;11.12;66.44
46534;BME280;32260;52.008;4.752;2023-02-03T01:40:51;102558.72;;;11.06;66.45
46534;BME280;32260;52.008;4.752;2023-02-03T01:43:36;102549.00;;;11.08;65.99
46534;BME280;32260;52.008;4.752;2023-02-03T01:46:11;102548.19;;;11.18;66.01
46534;BME280;32260;52.008;4.752;2023-02-03T01:48:41;102557.91;;;11.13;66.40
46534;BME280;32260;52.008;4.752;2023-02-03T01:51:08;102555.25;;;11.14;65.97
46534;BME280;32260;52.008;4.752;2023-02-03T01:53:34;102564.06;;;11.15;65.90
46534;BME280;32260;52.008;4.752;2023-02-03T01:56:03;102565.84;;;11.16;65.63
46534;BME280;32260;52.008;4.752;2023-02-03T01:58:32;102557.94;;;11.21;65.27
46534;BME280;32260;52.008;4.752;2023-02-03T02:01:00;102556.19;;;11.23;65.82
46534;BME280;32260;52.008;4.752;2023-02-03T02:03:32;102553.53;;;11.24;65.31
46534;BME280;32260;52.008;4.752;2023-02-03T02:06:04;102547.31;;;11.24;65.21
46534;BME280;32260;52.008;4.752;2023-02-03T02:08:31;102547.34;;;11.28;65.68
46534;BME280;32260;52.008;4.752;2023-02-03T02:10:59;102543.78;;;11.26;65.44
46534;BME280;32260;52.008;4.752;2023-02-03T02:13:26;102545.53;;;11.20;65.64
46534;BME280;32260;52.008;4.752;2023-02-03T02:15:59;102540.22;;;11.20;65.26
46534;BME280;32260;52.008;4.752;2023-02-03T02:25:00;102538.50;;;11.32;64.90
46534;BME280;32260;52.008;4.752;2023-02-03T02:31:38;102560.59;;;11.25;65.09
46534;BME280;32260;52.008;4.752;2023-02-03T02:33:33;102555.28;;;11.19;64.65
46534;BME280;32260;52.008;4.752;2023-02-03T02:39:08;102557.06;;;11.29;64.87
46534;BME280;32260;52.008;4.752;2023-02-03T02:41:55;102555.31;;;11.35;65.31
46534;BME280;32260;52.008;4.752;2023-02-03T02:44:28;102555.28;;;11.22;65.02
46534;BME280;32260;52.008;4.752;2023-02-03T02:46:59;102555.31;;;11.25;64.91
46534;BME280;32260;52.008;4.752;2023-02-03T02:49:33;102543.84;;;11.36;65.52
46534;BME280;32260;52.008;4.752;2023-02-03T02:52:04;102536.75;;;11.31;65.14
46534;BME280;32260;52.008;4.752;2023-02-03T02:54:33;102549.97;;;11.24;64.95
46534;BME280;32260;52.008;4.752;2023-02-03T02:57:03;102534.06;;;11.25;65.00
46534;BME280;32260;52.008;4.752;2023-02-03T02:59:30;102540.25;;;11.29;64.94
46534;BME280;32260;52.008;4.752;2023-02-03T03:01:56;102539.38;;;11.25;65.12
46534;BME280;32260;52.008;4.752;2023-02-03T03:04:24;102523.44;;;11.22;64.88
46534;BME280;32260;52.008;4.752;2023-02-03T03:06:58;102493.41;;;11.34;65.09
46534;BME280;32260;52.008;4.752;2023-02-03T03:09:33;102502.25;;;11.35;64.45
46534;BME280;32260;52.008;4.752;2023-02-03T03:12:14;102497.78;;;11.29;64.47
46534;BME280;32260;52.008;4.752;2023-02-03T03:14:45;102502.22;;;11.25;64.90
46534;BME280;32260;52.008;4.752;2023-02-03T03:17:19;102504.91;;;11.36;64.56
46534;BME280;32260;52.008;4.752;2023-02-03T03:19:51;102516.44;;;11.37;64.88
46534;BME280;32260;52.008;4.752;2023-02-03T03:22:21;102498.69;;;11.29;64.56
46534;BME280;32260;52.008;4.752;2023-02-03T03:24:54;102513.75;;;11.33;64.33
46534;BME280;32260;52.008;4.752;2023-02-03T03:27:28;102515.53;;;11.31;64.70
46534;BME280;32260;52.008;4.752;2023-02-03T03:29:59;102517.28;;;11.37;64.71
46534;BME280;32260;52.008;4.752;2023-02-03T03:32:27;102527.94;;;11.43;64.08
46534;BME280;32260;52.008;4.752;2023-02-03T03:34:56;102527.97;;;11.46;64.06
46534;BME280;32260;52.008;4.752;2023-02-03T03:37:32;102519.09;;;11.43;63.76
46534;BME280;32260;52.008;4.752;2023-02-03T03:41:03;102555.34;;;11.38;64.46
46534;BME280;32260;52.008;4.752;2023-02-03T03:42:53;102546.50;;;11.36;64.33
46534;BME280;32260;52.008;4.752;2023-02-03T03:45:45;102530.59;;;11.45;64.51
46534;BME280;32260;52.008;4.752;2023-02-03T03:48:18;102528.81;;;11.41;64.81
46534;BME280;32260;52.008;4.752;2023-02-03T03:50:51;102531.44;;;11.31;65.08
46534;BME280;32260;52.008;4.752;2023-02-03T03:53:18;102525.31;;;11.46;64.25
46534;BME280;32260;52.008;4.752;2023-02-03T03:55:49;102533.22;;;11.36;64.65
46534;BME280;32260;52.008;4.752;2023-02-03T03:58:23;102546.50;;;11.34;64.80
46534;BME280;32260;52.008;4.752;2023-02-03T04:00:49;102552.69;;;11.35;64.36
46534;BME280;32260;52.008;4.752;2023-02-03T04:03:21;102535.91;;;11.42;64.57
46534;BME280;32260;52.008;4.752;2023-02-03T04:05:48;102538.50;;;11.29;64.74
46534;BME280;32260;52.008;4.752;2023-02-03T04:08:14;102536.75;;;11.33;65.03
46534;BME280;32260;52.008;4.752;2023-02-03T04:10:41;102532.31;;;11.30;64.31
46534;BME280;32260;52.008;4.752;2023-02-03T04:13:09;102536.72;;;11.27;64.75
46534;BME280;32260;52.008;4.752;2023-02-03T04:15:36;102541.16;;;11.32;64.61
46534;BME280;32260;52.008;4.752;2023-02-03T04:18:03;102538.50;;;11.28;64.72
46534;BME280;32260;52.008;4.752;2023-02-03T04:20:31;102532.28;;;11.27;64.96
46534;BME280;32260;52.008;4.752;2023-02-03T04:22:58;102550.84;;;11.18;65.10
46534;BME280;32260;52.008;4.752;2023-02-03T04:25:25;102540.25;;;11.24;64.87
46534;BME280;32260;52.008;4.752;2023-02-03T04:27:51;102536.72;;;11.25;65.16
46534;BME280;32260;52.008;4.752;2023-02-03T04:30:17;102522.56;;;11.26;65.12
46534;BME280;32260;52.008;4.752;2023-02-03T04:32:44;102517.28;;;11.37;64.52
46534;BME280;32260;52.008;4.752;2023-02-03T04:35:10;102518.97;;;11.13;65.04
46534;BME280;32260;52.008;4.752;2023-02-03T04:37:36;102514.59;;;11.26;64.65
46534;BME280;32260;52.008;4.752;2023-02-03T04:40:03;102527.00;;;11.27;65.07
46534;BME280;32260;52.008;4.752;2023-02-03T04:42:29;102520.75;;;11.17;64.91
46534;BME280;32260;52.008;4.752;2023-02-03T04:44:55;102549.09;;;11.25;64.67
46534;BME280;32260;52.008;4.752;2023-02-03T04:47:21;102532.28;;;11.26;64.52
46534;BME280;32260;52.008;4.752;2023-02-03T04:49:47;102531.44;;;11.35;64.99
46534;BME280;32260;52.008;4.752;2023-02-03T04:52:15;102533.22;;;11.34;64.39
46534;BME280;32260;52.008;4.752;2023-02-03T04:54:41;102542.06;;;11.35;65.00
46534;BME280;32260;52.008;4.752;2023-02-03T04:57:07;102542.03;;;11.25;65.12
46534;BME280;32260;52.008;4.752;2023-02-03T04:59:33;102540.25;;;11.29;64.47
46534;BME280;32260;52.008;4.752;2023-02-03T05:02:02;102528.81;;;11.38;64.60
46534;BME280;32260;52.008;4.752;2023-02-03T05:04:29;102534.06;;;11.28;64.20
46534;BME280;32260;52.008;4.752;2023-02-03T05:06:56;102537.59;;;11.24;64.72
46534;BME280;32260;52.008;4.752;2023-02-03T05:09:23;102559.72;;;11.29;64.85
46534;BME280;32260;52.008;4.752;2023-02-03T05:11:49;102535.88;;;11.34;64.79
46534;BME280;32260;52.008;4.752;2023-02-03T05:14:15;102516.41;;;11.35;64.74
46534;BME280;32260;52.008;4.752;2023-02-03T05:16:41;102532.31;;;11.33;64.20
46534;BME280;32260;52.008;4.752;2023-02-03T05:19:07;102542.94;;;11.33;64.30
46534;BME280;32260;52.008;4.752;2023-02-03T05:21:33;102535.84;;;11.29;64.73
46534;BME280;32260;52.008;4.752;2023-02-03T05:23:59;102518.19;;;11.31;64.54
46534;BME280;32260;52.008;4.752;2023-02-03T05:26:26;102543.84;;;11.37;64.30
46534;BME280;32260;52.008;4.752;2023-02-03T05:28:52;102544.72;;;11.33;64.77
46534;BME280;32260;52.008;4.752;2023-02-03T05:31:18;102539.44;;;11.41;64.58
46534;BME280;32260;52.008;4.752;2023-02-03T05:33:44;102553.56;;;11.33;65.03
46534;BME280;32260;52.008;4.752;2023-02-03T05:36:10;102551.75;;;11.25;64.86
46534;BME280;32260;52.008;4.752;2023-02-03T05:38:36;102542.06;;;11.31;65.03
46534;BME280;32260;52.008;4.752;2023-02-03T05:41:02;102548.22;;;11.27;64.63
46534;BME280;32260;52.008;4.752;2023-02-03T05:43:48;102546.47;;;11.29;64.63
46534;BME280;32260;52.008;4.752;2023-02-03T05:46:14;102531.38;;;11.24;65.09
46534;BME280;32260;52.008;4.752;2023-02-03T05:48:40;102531.41;;;11.27;65.25
46534;BME280;32260;52.008;4.752;2023-02-03T05:51:06;102521.69;;;11.27;65.04
46534;BME280;32260;52.008;4.752;2023-02-03T05:53:32;102530.53;;;11.29;64.63
46534;BME280;32260;52.008;4.752;2023-02-03T05:55:58;102533.16;;;11.26;64.84
46534;BME280;32260;52.008;4.752;2023-02-03T05:58:25;102534.06;;;11.25;64.85
46534;BME280;32260;52.008;4.752;2023-02-03T06:00:51;102533.16;;;11.15;65.30
46534;BME280;32260;52.008;4.752;2023-02-03T06:03:17;102534.03;;;11.22;64.99
46534;BME280;32260;52.008;4.752;2023-02-03T06:05:43;102547.34;;;11.28;64.84
46534;BME280;32260;52.008;4.752;2023-02-03T06:08:10;102550.03;;;11.35;65.11
46534;BME280;32260;52.008;4.752;2023-02-03T06:10:36;102545.59;;;11.33;65.04
46534;BME280;32260;52.008;4.752;2023-02-03T06:13:13;102558.84;;;11.33;65.13
46534;BME280;32260;52.008;4.752;2023-02-03T06:15:39;102537.63;;;11.33;64.60
46534;BME280;32260;52.008;4.752;2023-02-03T06:18:06;102537.63;;;11.30;64.96
46534;BME280;32260;52.008;4.752;2023-02-03T06:20:32;102535.84;;;11.31;65.18
46534;BME280;32260;52.008;4.752;2023-02-03T06:22:58;102549.13;;;11.32;64.80
46534;BME280;32260;52.008;4.752;2023-02-03T06:25:24;102537.63;;;11.30;65.37
46534;BME280;32260;52.008;4.752;2023-02-03T06:27:51;102534.06;;;11.27;65.06
46534;BME280;32260;52.008;4.752;2023-02-03T06:30:17;102525.25;;;11.36;64.57
46534;BME280;32260;52.008;4.752;2023-02-03T06:32:43;102526.97;;;11.21;65.12
46534;BME280;32260;52.008;4.752;2023-02-03T06:35:09;102541.09;;;11.20;65.09
46534;BME280;32260;52.008;4.752;2023-02-03T06:37:35;102550.00;;;11.27;65.18
46534;BME280;32260;52.008;4.752;2023-02-03T06:40:03;102546.47;;;11.29;64.90
46534;BME280;32260;52.008;4.752;2023-02-03T06:42:29;102561.47;;;11.27;64.99
46534;BME280;32260;52.008;4.752;2023-02-03T06:44:55;102550.91;;;11.30;65.10
46534;BME280;32260;52.008;4.752;2023-02-03T06:47:21;102562.38;;;11.28;65.29
46534;BME280;32260;52.008;4.752;2023-02-03T06:49:47;102557.06;;;11.32;65.44
46534;BME280;32260;52.008;4.752;2023-02-03T06:52:14;102573.84;;;11.24;65.48
46534;BME280;32260;52.008;4.752;2023-02-03T06:54:40;102585.41;;;11.32;65.71
46534;BME280;32260;52.008;4.752;2023-02-03T06:57:06;102581.78;;;11.16;65.67
46534;BME280;32260;52.008;4.752;2023-02-03T06:59:33;102581.78;;;11.14;66.30
46534;BME280;32260;52.008;4.752;2023-02-03T07:01:59;102592.44;;;11.28;65.91
46534;BME280;32260;52.008;4.752;2023-02-03T07:04:25;102592.47;;;11.31;65.59
46534;BME280;32260;52.008;4.752;2023-02-03T07:06:55;102596.00;;;11.35;65.86
46534;BME280;32260;52.008;4.752;2023-02-03T07:09:21;102588.97;;;11.42;65.62
46534;BME280;32260;52.008;4.752;2023-02-03T07:11:47;102602.19;;;11.32;65.44
46534;BME280;32260;52.008;4.752;2023-02-03T07:14:13;102581.03;;;11.42;65.38
46534;BME280;32260;52.008;4.752;2023-02-03T07:16:40;102588.97;;;11.42;65.61
46534;BME280;32260;52.008;4.752;2023-02-03T07:19:06;102598.66;;;11.33;65.58
46534;BME280;32260;52.008;4.752;2023-02-03T07:21:32;102592.50;;;11.44;65.72
46534;BME280;32260;52.008;4.752;2023-02-03T07:23:58;102602.28;;;11.46;65.48
46534;BME280;32260;52.008;4.752;2023-02-03T07:26:24;102590.75;;;11.46;65.65
46534;BME280;32260;52.008;4.752;2023-02-03T07:28:51;102604.91;;;11.42;65.70
46534;BME280;32260;52.008;4.752;2023-02-03T07:31:18;102601.38;;;11.46;65.40
46534;BME280;32260;52.008;4.752;2023-02-03T07:33:44;102610.19;;;11.39;65.65
46534;BME280;32260;52.008;4.752;2023-02-03T07:36:10;102604.97;;;11.54;65.47
46534;BME280;32260;52.008;4.752;2023-02-03T07:38:37;102599.63;;;11.51;65.45
46534;BME280;32260;52.008;4.752;2023-02-03T07:41:04;102599.63;;;11.51;65.70
46534;BME280;32260;52.008;4.752;2023-02-03T07:43:30;102612.06;;;11.58;65.09
46534;BME280;32260;52.008;4.752;2023-02-03T07:45:58;102594.34;;;11.54;65.21
46534;BME280;32260;52.008;4.752;2023-02-03T07:48:24;102610.25;;;11.51;65.55
46534;BME280;32260;52.008;4.752;2023-02-03T07:50:50;102621.78;;;11.62;65.03
46534;BME280;32260;52.008;4.752;2023-02-03T07:53:19;102599.69;;;11.62;64.62
46534;BME280;32260;52.008;4.752;2023-02-03T07:55:45;102624.47;;;11.65;64.97
46534;BME280;32260;52.008;4.752;2023-02-03T07:58:12;102598.78;;;11.57;65.02
46534;BME280;32260;52.008;4.752;2023-02-03T08:00:38;102597.91;;;11.62;64.92
46534;BME280;32260;52.008;4.752;2023-02-03T08:03:04;102605.84;;;11.53;65.67
46534;BME280;32260;52.008;4.752;2023-02-03T08:05:30;102614.75;;;11.61;65.10
46534;BME280;32260;52.008;4.752;2023-02-03T08:07:57;102614.75;;;11.68;64.78
46534;BME280;32260;52.008;4.752;2023-02-03T08:10:24;102609.44;;;11.68;64.64
46534;BME280;32260;52.008;4.752;2023-02-03T08:12:53;102612.09;;;11.71;64.91
46534;BME280;32260;52.008;4.752;2023-02-03T08:15:19;102630.66;;;11.61;64.89
46534;BME280;32260;52.008;4.752;2023-02-03T08:17:45;102632.44;;;11.69;64.55
46534;BME280;32260;52.008;4.752;2023-02-03T08:20:12;102633.34;;;11.74;65.24
46534;BME280;32260;52.008;4.752;2023-02-03T08:22:38;102659.91;;;11.68;64.81
46534;BME280;32260;52.008;4.752;2023-02-03T08:25:04;102663.44;;;11.70;64.43
46534;BME280;32260;52.008;4.752;2023-02-03T08:27:31;102647.50;;;11.67;64.95
46534;BME280;32260;52.008;4.752;2023-02-03T08:29:58;102641.31;;;11.69;64.97
46534;BME280;32260;52.008;4.752;2023-02-03T08:32:24;102633.34;;;11.71;64.86
46534;BME280;32260;52.008;4.752;2023-02-03T08:34:51;102641.31;;;11.71;64.70
46534;BME280;32260;52.008;4.752;2023-02-03T08:37:20;102635.06;;;11.62;65.13
46534;BME280;32260;52.008;4.752;2023-02-03T08:39:46;102642.19;;;11.70;64.87
46534;BME280;32260;52.008;4.752;2023-02-03T08:42:12;102658.16;;;11.76;64.71
46534;BME280;32260;52.008;4.752;2023-02-03T08:44:38;102645.75;;;11.81;65.02
46534;BME280;32260;52.008;4.752;2023-02-03T08:47:05;102640.50;;;11.90;64.64
46534;BME280;32260;52.008;4.752;2023-02-03T08:49:32;102651.13;;;11.90;64.01
46534;BME280;32260;52.008;4.752;2023-02-03T08:52:00;102645.81;;;11.93;64.09
46534;BME280;32260;52.008;4.752;2023-02-03T08:54:26;102648.44;;;11.87;64.40
46534;BME280;32260;52.008;4.752;2023-02-03T08:56:52;102657.31;;;11.89;64.01
46534;BME280;32260;52.008;4.752;2023-02-03T08:59:18;102671.47;;;11.85;64.39
46534;BME280;32260;52.008;4.752;2023-02-03T09:01:44;102668.84;;;11.94;64.44
46534;BME280;32260;52.008;4.752;2023-02-03T09:04:14;102653.78;;;11.95;64.11
46534;BME280;32260;52.008;4.752;2023-02-03T09:06:43;102657.34;;;11.95;64.35
46534;BME280;32260;52.008;4.752;2023-02-03T09:09:09;102668.00;;;12.05;64.11
46534;BME280;32260;52.008;4.752;2023-02-03T09:11:35;102675.09;;;11.98;64.65
46534;BME280;32260;52.008;4.752;2023-02-03T09:14:01;102673.34;;;12.05;64.37
46534;BME280;32260;52.008;4.752;2023-02-03T09:16:28;102689.31;;;12.08;64.37
46534;BME280;32260;52.008;4.752;2023-02-03T09:18:55;102685.75;;;12.04;64.08
46534;BME280;32260;52.008;4.752;2023-02-03T09:21:21;102688.41;;;12.06;63.78
46534;BME280;32260;52.008;4.752;2023-02-03T09:23:47;102702.56;;;12.05;64.03
46534;BME280;32260;52.008;4.752;2023-02-03T09:26:14;102689.28;;;12.03;64.14
46534;BME280;32260;52.008;4.752;2023-02-03T09:28:41;102672.47;;;12.03;64.11
46534;BME280;32260;52.008;4.752;2023-02-03T09:31:09;102695.47;;;12.10;64.23
46534;BME280;32260;52.008;4.752;2023-02-03T09:33:36;102706.13;;;12.16;63.96
46534;BME280;32260;52.008;4.752;2023-02-03T09:36:02;102705.25;;;12.16;64.17
46534;BME280;32260;52.008;4.752;2023-02-03T09:38:29;102704.34;;;12.12;64.37
46534;BME280;32260;52.008;4.752;2023-02-03T09:41:01;102701.72;;;12.18;63.68
46534;BME280;32260;52.008;4.752;2023-02-03T09:46:11;102699.06;;;12.20;63.60
46534;BME280;32260;52.008;4.752;2023-02-03T09:48:45;102700.84;;;12.22;64.07
46534;BME280;32260;52.008;4.752;2023-02-03T09:51:19;102696.41;;;12.26;63.69
46534;BME280;32260;52.008;4.752;2023-02-03T09:53:53;102713.22;;;12.14;64.36
46534;BME280;32260;52.008;4.752;2023-02-03T09:56:29;102720.38;;;12.32;63.78
46534;BME280;32260;52.008;4.752;2023-02-03T09:58:56;102717.72;;;12.35;63.83
46534;BME280;32260;52.008;4.752;2023-02-03T10:01:24;102704.44;;;12.40;63.35
46534;BME280;32260;52.008;4.752;2023-02-03T10:06:42;102722.19;;;12.59;62.68
46534;BME280;32260;52.008;4.752;2023-02-03T10:13:19;102726.63;;;12.59;62.74
46534;BME280;32260;52.008;4.752;2023-02-03T10:17:40;102732.00;;;12.70;62.69
46534;BME280;32260;52.008;4.752;2023-02-03T10:20:19;102727.56;;;12.87;62.01
46534;BME280;32260;52.008;4.752;2023-02-03T10:22:53;102746.19;;;12.81;61.65
46534;BME280;32260;52.008;4.752;2023-02-03T10:25:32;102742.59;;;12.82;62.29
46534;BME280;32260;52.008;4.752;2023-02-03T10:28:02;102733.75;;;12.83;61.60
46534;BME280;32260;52.008;4.752;2023-02-03T10:30:38;102736.44;;;12.80;61.63
46534;BME280;32260;52.008;4.752;2023-02-03T10:33:14;102752.38;;;12.83;61.57
46534;BME280;32260;52.008;4.752;2023-02-03T10:36:03;102734.66;;;12.91;61.73
46534;BME280;32260;52.008;4.752;2023-02-03T10:39:16;102732.88;;;12.78;62.31
46534;BME280;32260;52.008;4.752;2023-02-03T10:41:28;102747.06;;;12.78;62.18
46534;BME280;32260;52.008;4.752;2023-02-03T10:43:56;102747.06;;;12.80;61.64
46534;BME280;32260;52.008;4.752;2023-02-03T10:46:39;102755.94;;;13.01;61.54
46534;BME280;32260;52.008;4.752;2023-02-03T10:49:08;102763.91;;;12.91;61.57
46534;BME280;32260;52.008;4.752;2023-02-03T10:51:51;102763.06;;;13.05;61.05
46534;BME280;32260;52.008;4.752;2023-02-03T10:54:35;102772.78;;;13.18;61.04
46534;BME280;32260;52.008;4.752;2023-02-03T10:57:09;102777.22;;;13.05;61.08
46534;BME280;32260;52.008;4.752;2023-02-03T10:59:40;102774.59;;;13.15;60.91
46534;BME280;32260;52.008;4.752;2023-02-03T11:02:13;102794.97;;;13.08;61.43
46534;BME280;32260;52.008;4.752;2023-02-03T11:04:46;102772.78;;;13.03;60.98
46534;BME280;32260;52.008;4.752;2023-02-03T11:07:24;102788.75;;;12.98;61.14
46534;BME280;32260;52.008;4.752;2023-02-03T11:09:50;102775.47;;;13.03;61.11
46534;BME280;32260;52.008;4.752;2023-02-03T11:12:19;102783.44;;;13.12;60.99
46534;BME280;32260;52.008;4.752;2023-02-03T11:14:49;102779.91;;;13.21;61.29
46534;BME280;32260;52.008;4.752;2023-02-03T11:20:12;102769.25;;;13.22;60.91
46534;BME280;32260;52.008;4.752;2023-02-03T11:22:41;102775.44;;;13.12;60.67
46534;BME280;32260;52.008;4.752;2023-02-03T11:25:18;102781.66;;;13.20;60.83
46534;BME280;32260;52.008;4.752;2023-02-03T11:27:45;102762.16;;;13.14;60.89
46534;BME280;32260;52.008;4.752;2023-02-03T11:32:54;102779.00;;;13.09;60.68
46534;BME280;32260;52.008;4.752;2023-02-03T11:35:23;102789.66;;;13.05;61.37
46534;BME280;32260;52.008;4.752;2023-02-03T11:37:53;102772.81;;;13.07;61.40
46534;BME280;32260;52.008;4.752;2023-02-03T11:45:44;102793.22;;;13.16;60.78
46534;BME280;32260;52.008;4.752;2023-02-03T11:48:31;102773.69;;;13.26;60.86
46534;BME280;32260;52.008;4.752;2023-02-03T12:00:02;102768.38;;;13.23;61.07
46534;BME280;32260;52.008;4.752;2023-02-03T12:08:23;102792.34;;;13.23;60.97
46534;BME280;32260;52.008;4.752;2023-02-03T12:11:17;102773.72;;;13.23;61.21
46534;BME280;32260;52.008;4.752;2023-02-03T12:14:16;102783.44;;;13.27;61.13
46534;BME280;32260;52.008;4.752;2023-02-03T12:28:09;102774.56;;;13.32;60.97
46534;BME280;32260;52.008;4.752;2023-02-03T12:30:44;102777.25;;;13.16;61.57
46534;BME280;32260;52.008;4.752;2023-02-03T12:33:29;102789.69;;;13.17;61.27
46534;BME280;32260;52.008;4.752;2023-02-03T12:36:10;102771.91;;;13.19;61.11
46534;BME280;32260;52.008;4.752;2023-02-03T12:38:48;102791.41;;;13.18;61.41
46534;BME280;32260;52.008;4.752;2023-02-03T12:41:23;102785.22;;;13.27;60.97
46534;BME280;32260;52.008;4.752;2023-02-03T12:43:55;102765.72;;;13.31;60.73
46534;BME280;32260;52.008;4.752;2023-02-03T12:46:43;102783.44;;;13.31;60.64
46534;BME280;32260;52.008;4.752;2023-02-03T12:52:26;102777.25;;;13.39;61.05
46534;BME280;32260;52.008;4.752;2023-02-03T12:55:19;102802.13;;;13.41;60.92
46534;BME280;32260;52.008;4.752;2023-02-03T13:00:39;102784.34;;;13.36;61.00
46534;BME280;32260;52.008;4.752;2023-02-03T13:03:15;102793.22;;;13.35;61.11
46534;BME280;32260;52.008;4.752;2023-02-03T13:06:01;102797.66;;;13.26;61.12
46534;BME280;32260;52.008;4.752;2023-02-03T13:08:35;102800.31;;;13.23;61.58
46534;BME280;32260;52.008;4.752;2023-02-03T13:13:53;102810.94;;;13.28;61.47
46534;BME280;32260;52.008;4.752;2023-02-03T13:16:25;102821.59;;;13.26;61.36
46534;BME280;32260;52.008;4.752;2023-02-03T13:18:59;102822.50;;;13.18;61.94
46534;BME280;32260;52.008;4.752;2023-02-03T13:21:28;102835.78;;;13.07;62.13
46534;BME280;32260;52.008;4.752;2023-02-03T13:23:54;102831.31;;;12.92;63.04
46534;BME280;32260;52.008;4.752;2023-02-03T13:27:14;102833.97;;;12.90;63.34
46534;BME280;32260;52.008;4.752;2023-02-03T13:30:44;102828.66;;;12.87;63.10
46534;BME280;32260;52.008;4.752;2023-02-03T13:36:23;102855.16;;;12.59;65.14
46534;BME280;32260;52.008;4.752;2023-02-03T13:45:56;102852.34;;;12.25;65.98
46534;BME280;32260;52.008;4.752;2023-02-03T13:47:47;102860.28;;;12.19;67.66
46534;BME280;32260;52.008;4.752;2023-02-03T13:50:20;102854.06;;;12.16;67.08
46534;BME280;32260;52.008;4.752;2023-02-03T13:55:56;102868.03;;;11.88;69.42
46534;BME280;32260;52.008;4.752;2023-02-03T13:58:28;102858.19;;;11.75;70.18
46534;BME280;32260;52.008;4.752;2023-02-03T14:18:30;102888.06;;;11.46;70.94
46534;BME280;32260;52.008;4.752;2023-02-03T14:21:08;102881.81;;;11.38;71.55
46534;BME280;32260;52.008;4.752;2023-02-03T14:23:41;102882.69;;;11.40;71.39
46534;BME280;32260;52.008;4.752;2023-02-03T14:26:17;102892.47;;;11.45;71.53
46534;BME280;32260;52.008;4.752;2023-02-03T14:28:46;102890.66;;;11.40;71.74
46534;BME280;32260;52.008;4.752;2023-02-03T14:31:21;102893.34;;;11.44;70.89
46534;BME280;32260;52.008;4.752;2023-02-03T14:39:34;102896.06;;;11.49;70.91
46534;BME280;32260;52.008;4.752;2023-02-03T14:49:27;102900.53;;;11.56;69.93
46534;BME280;32260;52.008;4.752;2023-02-03T14:57:35;102925.19;;;11.43;70.56
46534;BME280;32260;52.008;4.752;2023-02-03T14:59:41;102912.13;;;11.66;69.98
46534;BME280;32260;52.008;4.752;2023-02-03T15:04:47;102917.31;;;11.52;69.67
46534;BME280;32260;52.008;4.752;2023-02-03T15:07:34;102910.38;;;11.67;70.10
46534;BME280;32260;52.008;4.752;2023-02-03T15:10:00;102916.50;;;11.59;69.83
46534;BME280;32260;52.008;4.752;2023-02-03T15:12:32;102910.25;;;11.56;70.05
46534;BME280;32260;52.008;4.752;2023-02-03T15:15:24;102920.94;;;11.63;69.68
46534;BME280;32260;52.008;4.752;2023-02-03T15:17:55;102920.06;;;11.61;70.21
46534;BME280;32260;52.008;4.752;2023-02-03T15:20:44;102916.50;;;11.59;70.16
46534;BME280;32260;52.008;4.752;2023-02-03T15:23:19;102934.22;;;11.63;69.86
46534;BME280;32260;52.008;4.752;2023-02-03T15:25:45;102927.06;;;11.56;69.77
46534;BME280;32260;52.008;4.752;2023-02-03T15:28:22;102930.63;;;11.58;70.00
46534;BME280;32260;52.008;4.752;2023-02-03T15:30:53;102918.28;;;11.60;69.96
46534;BME280;32260;52.008;4.752;2023-02-03T15:33:25;102925.34;;;11.58;69.66
46534;BME280;32260;52.008;4.752;2023-02-03T15:36:05;102932.44;;;11.61;69.34
46534;BME280;32260;52.008;4.752;2023-02-03T15:38:38;102933.34;;;11.63;69.34
46534;BME280;32260;52.008;4.752;2023-02-03T15:41:07;102940.41;;;11.61;69.85